HTDA

Julius Nyerere International Airport

Airport
ICAO code
HTDA
IATA Code
DAR
Summary
ICAO Region
AFI
ICAO Territory
Location

Dar es Salaam, Dar es Salaam Region

Serving
Dar es Salaam
Elevation
196 ft
Coordinates
6° 52' 21" S , 39° 12' 25" E
KCC
Aw
Metar
Observation
HTDA 152100Z 18004KT 9999 FEW011 21/19 Q1016 NOSIG
Station
Dar Es Salaam Airport
Date/Time
2022-08-15 21:00:00
Wind direction
180°
Wind speed
04 kts
Lowest cloud amount
few clouds
Temperature
21°C
Dew point
19°C
Humidity
88%
QNH
1016 hPa
Weather condition
n/a

Julius Nyerere International Airport is the international airport of Dar es Salaam, the largest city in Tanzania. It is located about 12 km southwest of the city centre.

Climatology

Tropical Savanna climate (Köppen climate classification Aw)

Runways

Designator Length Width Surface Rops
14/32 1000 30 ASP Yes/Yes
5/23 3000 46 ASP Yes/Yes

Airport map

Aerial View

SKYbrary Partners:

Safety knowledge contributed by: